createdAt,value
2022-07-29T00:00:49.881Z,77
2022-07-29T00:01:56.023Z,77
2022-07-29T00:03:02.192Z,77
2022-07-29T00:04:08.429Z,77
2022-07-29T00:05:14.694Z,77
2022-07-29T00:06:20.846Z,77
2022-07-29T00:07:27.061Z,77
2022-07-29T00:08:33.206Z,77
2022-07-29T00:09:44.899Z,77
2022-07-29T00:10:56.949Z,77
2022-07-29T00:12:03.088Z,77
2022-07-29T00:13:09.227Z,77
2022-07-29T00:14:15.593Z,77
2022-07-29T00:15:22.182Z,77
2022-07-29T00:16:28.395Z,77
2022-07-29T00:17:34.580Z,77
2022-07-29T00:18:40.727Z,77
2022-07-29T00:19:46.878Z,77
2022-07-29T00:20:53.107Z,77
2022-07-29T00:21:59.257Z,77
2022-07-29T00:23:05.457Z,77
2022-07-29T00:24:11.782Z,77
2022-07-29T00:25:18.085Z,77
2022-07-29T00:26:24.318Z,77
2022-07-29T00:27:30.467Z,77
2022-07-29T00:28:36.614Z,77
2022-07-29T00:29:42.769Z,77
2022-07-29T00:30:49.188Z,77
2022-07-29T00:31:55.382Z,77
2022-07-29T00:33:01.556Z,77
2022-07-29T00:34:07.707Z,77
2022-07-29T00:35:13.936Z,77
2022-07-29T00:36:20.081Z,77
2022-07-29T00:37:26.227Z,77
2022-07-29T00:38:32.378Z,77
2022-07-29T00:39:38.528Z,77
2022-07-29T00:40:44.777Z,77
2022-07-29T00:41:50.926Z,77
2022-07-29T00:42:57.079Z,77
2022-07-29T00:44:03.347Z,77
2022-07-29T00:45:09.748Z,77
2022-07-29T00:46:15.949Z,77
2022-07-29T00:47:22.111Z,77
2022-07-29T00:48:28.260Z,77
2022-07-29T00:49:34.405Z,77
2022-07-29T00:50:40.634Z,77
2022-07-29T00:51:46.782Z,77
2022-07-29T00:52:53.623Z,77
2022-07-29T00:53:59.765Z,77
2022-07-29T00:55:08.652Z,77
2022-07-29T00:56:15.047Z,77
2022-07-29T00:57:21.198Z,77
2022-07-29T00:58:27.346Z,77
2022-07-29T00:59:35.153Z,77
2022-07-29T01:00:41.943Z,77
2022-07-29T01:01:48.209Z,77
2022-07-29T01:02:54.387Z,77
2022-07-29T01:04:00.527Z,77
2022-07-29T01:05:06.750Z,77
2022-07-29T01:06:12.900Z,77
2022-07-29T01:07:19.072Z,77
2022-07-29T01:08:25.220Z,77
2022-07-29T01:09:42.175Z,77
2022-07-29T01:10:53.256Z,77
2022-07-29T01:12:00.926Z,77
2022-07-29T01:13:08.534Z,77
2022-07-29T01:14:15.101Z,77
2022-07-29T01:15:21.689Z,77
2022-07-29T01:16:27.915Z,77
2022-07-29T01:17:34.086Z,77
2022-07-29T01:18:40.300Z,77
2022-07-29T01:19:46.455Z,77
2022-07-29T01:20:52.686Z,77
2022-07-29T01:21:58.835Z,77
2022-07-29T01:23:04.982Z,77
2022-07-29T01:24:11.156Z,77
2022-07-29T01:25:17.534Z,77
2022-07-29T01:26:23.685Z,77
2022-07-29T01:27:29.942Z,77
2022-07-29T01:28:36.116Z,77
2022-07-29T01:29:42.274Z,77
2022-07-29T01:30:50.414Z,77
2022-07-29T01:32:01.190Z,77
2022-07-29T01:33:07.508Z,77
2022-07-29T01:34:14.007Z,77
2022-07-29T01:35:20.435Z,77
2022-07-29T01:36:26.599Z,77
2022-07-29T01:37:32.746Z,77
2022-07-29T01:38:38.892Z,77
2022-07-29T01:39:45.035Z,77
2022-07-29T01:40:51.267Z,77
2022-07-29T01:41:57.412Z,77
2022-07-29T01:43:03.560Z,77
2022-07-29T01:44:09.710Z,77
2022-07-29T01:45:16.112Z,77
2022-07-29T01:46:22.376Z,77
2022-07-29T01:47:28.612Z,77
2022-07-29T01:48:34.756Z,77
2022-07-29T01:49:40.902Z,77
2022-07-29T01:50:47.150Z,77
2022-07-29T01:51:53.297Z,77
2022-07-29T01:52:59.455Z,77
2022-07-29T01:54:05.603Z,77
2022-07-29T01:55:11.833Z,77
2022-07-29T01:56:17.978Z,77
2022-07-29T01:57:24.134Z,77
2022-07-29T01:58:30.291Z,77
2022-07-29T01:59:36.439Z,77
2022-07-29T02:00:43.855Z,77
2022-07-29T02:01:50.145Z,77
2022-07-29T02:03:00.723Z,77
2022-07-29T02:04:06.940Z,77
2022-07-29T02:05:13.211Z,77
2022-07-29T02:06:19.390Z,77
2022-07-29T02:07:25.542Z,77
2022-07-29T02:08:31.722Z,77
2022-07-29T02:09:37.871Z,77
2022-07-29T02:10:44.102Z,77
2022-07-29T02:11:50.245Z,77
2022-07-29T02:12:56.396Z,77
2022-07-29T02:14:02.541Z,77
2022-07-29T02:15:08.938Z,77
2022-07-29T02:16:17.716Z,77
2022-07-29T02:17:23.923Z,77
2022-07-29T02:18:30.094Z,77
2022-07-29T02:19:36.247Z,77
2022-07-29T02:20:42.471Z,77
2022-07-29T02:21:48.617Z,77
2022-07-29T02:22:54.758Z,77
2022-07-29T02:24:00.912Z,77
2022-07-29T02:25:07.138Z,77
2022-07-29T02:26:20.083Z,77
2022-07-29T02:27:26.233Z,77
2022-07-29T02:28:32.372Z,77
2022-07-29T02:29:38.516Z,77
2022-07-29T02:30:44.942Z,77
2022-07-29T02:31:51.167Z,77
2022-07-29T02:32:57.308Z,77
2022-07-29T02:34:03.450Z,77
2022-07-29T02:35:09.686Z,77
2022-07-29T02:36:15.833Z,77
2022-07-29T02:37:21.979Z,77
2022-07-29T02:38:28.120Z,77
2022-07-29T02:39:34.261Z,77
2022-07-29T02:40:40.497Z,77
2022-07-29T02:41:46.640Z,77
2022-07-29T02:42:52.783Z,77
2022-07-29T02:43:58.926Z,77
2022-07-29T02:45:05.320Z,77
2022-07-29T02:46:12.713Z,77
2022-07-29T02:47:41.876Z,77
2022-07-29T02:48:48.429Z,77
2022-07-29T02:49:54.629Z,77
2022-07-29T02:51:00.772Z,77
2022-07-29T02:52:06.914Z,77
2022-07-29T02:53:13.053Z,77
2022-07-29T02:54:19.485Z,77
2022-07-29T02:55:25.888Z,77
2022-07-29T02:56:32.051Z,77
2022-07-29T02:57:53.945Z,77
2022-07-29T02:59:01.363Z,77
2022-07-29T03:00:07.771Z,77
2022-07-29T03:00:39.786Z,87
2022-07-29T03:01:11.149Z,87
2022-07-29T03:01:34.022Z,88
2022-07-29T03:01:58.262Z,87
2022-07-29T03:02:30.601Z,87
2022-07-29T03:03:02.950Z,87
2022-07-29T03:03:33.929Z,87
2022-07-29T03:04:07.031Z,87
2022-07-29T03:04:34.878Z,87
2022-07-29T03:04:54.300Z,87
2022-07-29T03:05:26.284Z,87
2022-07-29T03:05:58.215Z,87
2022-07-29T03:06:37.780Z,87
2022-07-29T03:07:02.215Z,87
2022-07-29T03:07:33.921Z,87
2022-07-29T03:08:06.259Z,87
2022-07-29T03:08:33.919Z,87
2022-07-29T03:08:54.202Z,87
2022-07-29T03:09:26.918Z,87
2022-07-29T03:09:58.186Z,87
2022-07-29T03:10:30.281Z,87
2022-07-29T03:11:02.183Z,88
2022-07-29T03:11:42.463Z,88
2022-07-29T03:12:06.184Z,88
2022-07-29T03:12:34.956Z,88
2022-07-29T03:12:54.924Z,88
2022-07-29T03:13:26.248Z,88
2022-07-29T03:13:59.623Z,88
2022-07-29T03:14:30.226Z,88
2022-07-29T03:15:03.188Z,88
2022-07-29T03:15:35.535Z,88
2022-07-29T03:16:06.336Z,88
2022-07-29T03:16:38.053Z,88
2022-07-29T03:16:54.202Z,88
2022-07-29T03:17:27.280Z,88
2022-07-29T03:17:59.341Z,88
2022-07-29T03:18:31.881Z,88
2022-07-29T03:19:02.170Z,88
2022-07-29T03:19:35.763Z,88
2022-07-29T03:20:06.291Z,88
2022-07-29T03:20:33.934Z,88
2022-07-29T03:20:55.113Z,88
2022-07-29T03:21:26.199Z,88
2022-07-29T03:21:59.808Z,88
2022-07-29T03:22:30.180Z,88
2022-07-29T03:23:03.242Z,88
2022-07-29T03:23:35.432Z,88
2022-07-29T03:24:10.313Z,87
2022-07-29T03:24:33.916Z,87
2022-07-29T03:24:54.177Z,87
2022-07-29T03:25:27.061Z,87
2022-07-29T03:25:58.176Z,87
2022-07-29T03:26:30.911Z,87
2022-07-29T03:27:03.075Z,87
2022-07-29T03:27:34.922Z,87
2022-07-29T03:28:07.369Z,87
2022-07-29T03:28:34.825Z,87
2022-07-29T03:28:54.928Z,87
2022-07-29T03:29:33.473Z,87
2022-07-29T03:30:21.811Z,87
2022-07-29T03:30:35.950Z,87
2022-07-29T03:31:02.273Z,87
2022-07-29T03:31:34.576Z,88
2022-07-29T03:32:09.195Z,88
2022-07-29T03:32:33.918Z,88
2022-07-29T03:32:56.542Z,88
2022-07-29T03:33:26.208Z,88
2022-07-29T03:33:58.175Z,88
2022-07-29T03:34:32.242Z,88
2022-07-29T03:35:03.071Z,88
2022-07-29T03:35:33.927Z,88
2022-07-29T03:36:06.158Z,88
2022-07-29T03:36:36.655Z,88
2022-07-29T03:36:54.214Z,88
2022-07-29T03:37:29.200Z,88
2022-07-29T03:37:58.230Z,88
2022-07-29T03:38:30.269Z,88
2022-07-29T03:39:04.829Z,88
2022-07-29T03:39:40.302Z,88
2022-07-29T03:40:38.916Z,88
2022-07-29T03:41:14.343Z,88
2022-07-29T03:41:35.540Z,88
2022-07-29T03:42:14.702Z,88
2022-07-29T03:42:35.987Z,87
2022-07-29T03:43:02.188Z,88
2022-07-29T03:43:34.648Z,88
2022-07-29T03:44:06.191Z,88
2022-07-29T03:44:34.687Z,88
2022-07-29T03:44:54.339Z,88
2022-07-29T03:45:26.534Z,88
2022-07-29T03:45:58.846Z,88
2022-07-29T03:46:30.294Z,88
2022-07-29T03:47:02.717Z,88
2022-07-29T03:47:38.587Z,88
2022-07-29T03:48:06.701Z,88
2022-07-29T03:48:34.345Z,88
2022-07-29T03:48:54.273Z,88
2022-07-29T03:49:26.514Z,89
2022-07-29T03:49:58.222Z,89
2022-07-29T03:50:30.256Z,88
2022-07-29T03:51:02.194Z,88
2022-07-29T03:51:34.942Z,88
2022-07-29T03:52:06.209Z,88
2022-07-29T03:52:33.942Z,89
2022-07-29T03:52:54.233Z,89
2022-07-29T03:53:26.755Z,89
2022-07-29T03:53:58.215Z,89
2022-07-29T03:54:30.728Z,89
2022-07-29T03:55:02.301Z,89
2022-07-29T03:55:35.696Z,89
2022-07-29T03:56:07.210Z,89
2022-07-29T03:56:33.945Z,89
2022-07-29T03:56:54.200Z,89
2022-07-29T03:57:26.225Z,89
2022-07-29T03:57:58.696Z,89
2022-07-29T03:58:30.220Z,89
2022-07-29T03:59:02.776Z,89
2022-07-29T03:59:33.985Z,89
2022-07-29T04:00:07.111Z,89
2022-07-29T04:00:35.153Z,89
2022-07-29T04:00:54.286Z,89
2022-07-29T04:01:26.319Z,88
2022-07-29T04:01:58.874Z,88
2022-07-29T04:02:30.710Z,88
2022-07-29T04:03:02.226Z,88
2022-07-29T04:03:34.002Z,88
2022-07-29T04:04:06.267Z,88
2022-07-29T04:04:34.849Z,88
2022-07-29T04:04:54.262Z,88
2022-07-29T04:05:26.806Z,88
2022-07-29T04:05:58.181Z,88
2022-07-29T04:06:30.724Z,88
2022-07-29T04:07:02.212Z,88
2022-07-29T04:07:35.585Z,88
2022-07-29T04:08:06.175Z,88
2022-07-29T04:08:36.053Z,88
2022-07-29T04:08:54.247Z,88
2022-07-29T04:09:26.179Z,88
2022-07-29T04:09:58.820Z,88
2022-07-29T04:10:32.207Z,88
2022-07-29T04:11:04.926Z,88
2022-07-29T04:11:34.063Z,88
2022-07-29T04:12:06.860Z,88
2022-07-29T04:12:33.946Z,88
2022-07-29T04:12:54.227Z,88
2022-07-29T04:13:27.345Z,88
2022-07-29T04:13:58.177Z,88
2022-07-29T04:14:30.172Z,88
2022-07-29T04:15:02.730Z,88
2022-07-29T04:15:34.021Z,88
2022-07-29T04:16:06.196Z,88
2022-07-29T04:16:34.033Z,88
2022-07-29T04:16:54.227Z,88
2022-07-29T04:17:26.742Z,88
2022-07-29T04:17:58.170Z,88
2022-07-29T04:18:30.847Z,88
2022-07-29T04:19:02.206Z,88
2022-07-29T04:19:35.443Z,88
2022-07-29T04:20:06.274Z,88
2022-07-29T04:20:33.982Z,88
2022-07-29T04:20:54.282Z,88
2022-07-29T04:21:27.091Z,88
2022-07-29T04:21:58.835Z,88
2022-07-29T04:22:31.068Z,88
2022-07-29T04:23:04.664Z,87
2022-07-29T04:23:33.993Z,87
2022-07-29T04:24:06.709Z,87
2022-07-29T04:24:34.005Z,87
2022-07-29T04:24:54.261Z,87
2022-07-29T04:25:26.283Z,87
2022-07-29T04:25:58.200Z,87
2022-07-29T04:26:30.162Z,87
2022-07-29T04:27:02.225Z,87
2022-07-29T04:27:35.489Z,87
2022-07-29T04:28:06.196Z,87
2022-07-29T04:28:34.022Z,87
2022-07-29T04:28:54.961Z,87
2022-07-29T04:29:28.668Z,86
2022-07-29T04:29:58.176Z,87
2022-07-29T04:30:31.311Z,87
2022-07-29T04:31:02.225Z,87
2022-07-29T04:31:34.649Z,87
2022-07-29T04:32:07.168Z,86
2022-07-29T04:32:34.950Z,86
2022-07-29T04:32:54.247Z,86
2022-07-29T04:33:26.186Z,86
2022-07-29T04:33:58.799Z,86
2022-07-29T04:34:30.243Z,86
2022-07-29T04:35:03.102Z,86
2022-07-29T04:35:38.070Z,86
2022-07-29T04:36:06.696Z,86
2022-07-29T04:36:34.007Z,86
2022-07-29T04:36:54.239Z,86
2022-07-29T04:37:26.201Z,85
2022-07-29T04:37:59.159Z,85
2022-07-29T04:38:31.662Z,85
2022-07-29T04:39:02.196Z,85
2022-07-29T04:39:34.843Z,85
2022-07-29T04:40:06.266Z,85
2022-07-29T04:40:34.843Z,85
2022-07-29T04:40:54.308Z,85
2022-07-29T04:41:32.780Z,85
2022-07-29T04:41:58.187Z,85
2022-07-29T04:42:31.483Z,85
2022-07-29T04:43:05.709Z,84
2022-07-29T04:43:36.872Z,84
2022-07-29T04:44:07.015Z,85
2022-07-29T04:44:33.971Z,85
2022-07-29T04:44:54.957Z,85
2022-07-29T04:45:26.611Z,85
2022-07-29T04:45:58.735Z,85
2022-07-29T04:46:30.190Z,84
2022-07-29T04:47:02.655Z,84
2022-07-29T04:47:33.941Z,84
2022-07-29T04:48:06.651Z,85
2022-07-29T04:48:33.936Z,85
2022-07-29T04:48:54.296Z,85
2022-07-29T04:49:26.478Z,85
2022-07-29T04:49:58.145Z,85
2022-07-29T04:50:30.378Z,85
2022-07-29T04:51:02.190Z,85
2022-07-29T04:51:36.077Z,85
2022-07-29T04:52:06.191Z,85
2022-07-29T04:52:33.941Z,85
2022-07-29T04:52:54.147Z,85
2022-07-29T04:53:26.667Z,85
2022-07-29T04:53:59.178Z,85
2022-07-29T04:54:31.645Z,85
2022-07-29T04:55:02.275Z,85
2022-07-29T04:55:34.461Z,85
2022-07-29T04:56:06.220Z,84
2022-07-29T04:56:35.840Z,85
2022-07-29T04:56:54.175Z,84
2022-07-29T04:57:26.176Z,85
2022-07-29T04:57:59.688Z,84
2022-07-29T04:58:31.234Z,84
2022-07-29T04:59:03.719Z,84
2022-07-29T04:59:35.050Z,84
2022-07-29T05:00:07.009Z,84
2022-07-29T05:00:34.640Z,84
2022-07-29T05:00:54.226Z,84
2022-07-29T05:01:26.239Z,84
2022-07-29T05:01:58.893Z,84
2022-07-29T05:02:30.242Z,84
2022-07-29T05:03:02.194Z,84
2022-07-29T05:03:33.938Z,84
2022-07-29T05:04:06.143Z,84
2022-07-29T05:04:34.833Z,84
2022-07-29T05:04:54.359Z,84
2022-07-29T05:05:26.280Z,84
2022-07-29T05:05:58.209Z,84
2022-07-29T05:06:30.202Z,84
2022-07-29T05:07:02.189Z,84
2022-07-29T05:07:35.143Z,84
2022-07-29T05:08:06.162Z,84
2022-07-29T05:08:34.634Z,84
2022-07-29T05:08:54.664Z,84
2022-07-29T05:09:26.137Z,84
2022-07-29T05:09:58.638Z,84
2022-07-29T05:10:31.267Z,84
2022-07-29T05:11:11.513Z,84
2022-07-29T05:11:35.237Z,84
2022-07-29T05:12:07.592Z,84
2022-07-29T05:12:34.638Z,84
2022-07-29T05:12:54.965Z,84
2022-07-29T05:13:26.185Z,84
2022-07-29T05:13:59.069Z,84
2022-07-29T05:14:30.156Z,84
2022-07-29T05:15:02.448Z,84
2022-07-29T05:15:33.987Z,84
2022-07-29T05:16:06.211Z,84
2022-07-29T05:16:33.955Z,84
2022-07-29T05:16:54.250Z,84
2022-07-29T05:17:26.654Z,84
2022-07-29T05:17:58.132Z,84
2022-07-29T05:18:31.470Z,84
2022-07-29T05:19:02.130Z,84
2022-07-29T05:19:39.385Z,84
2022-07-29T05:20:06.266Z,84
2022-07-29T05:20:34.336Z,84
2022-07-29T05:20:54.283Z,83
2022-07-29T05:21:26.752Z,84
2022-07-29T05:21:58.667Z,84
2022-07-29T05:22:30.155Z,84
2022-07-29T05:23:03.102Z,84
2022-07-29T05:23:33.984Z,84
2022-07-29T05:24:06.628Z,84
2022-07-29T05:24:33.939Z,84
2022-07-29T05:24:54.126Z,84
2022-07-29T05:25:44.416Z,84
2022-07-29T05:25:58.196Z,83
2022-07-29T05:26:30.119Z,84
2022-07-29T05:27:02.184Z,84
2022-07-29T05:27:33.967Z,84
2022-07-29T05:28:06.151Z,83
2022-07-29T05:28:35.034Z,84
2022-07-29T05:28:54.198Z,84
2022-07-29T05:29:43.005Z,84
2022-07-29T05:29:58.254Z,84
2022-07-29T05:30:31.067Z,84
2022-07-29T05:31:02.214Z,83
2022-07-29T05:31:35.571Z,83
2022-07-29T05:32:06.165Z,83
2022-07-29T05:32:35.536Z,83
2022-07-29T05:32:54.138Z,83
2022-07-29T05:33:34.693Z,83
2022-07-29T05:33:58.622Z,83
2022-07-29T05:34:31.052Z,83
2022-07-29T05:35:02.798Z,84
2022-07-29T05:35:34.576Z,84
2022-07-29T05:36:06.726Z,84
2022-07-29T05:36:33.936Z,84
2022-07-29T05:36:54.130Z,83
2022-07-29T05:37:26.172Z,83
2022-07-29T05:37:58.191Z,83
2022-07-29T05:38:31.053Z,83
2022-07-29T05:39:03.209Z,83
2022-07-29T05:39:48.826Z,83
2022-07-29T05:40:06.278Z,83
2022-07-29T05:40:34.036Z,83
2022-07-29T05:40:54.219Z,83
2022-07-29T05:41:26.618Z,83
2022-07-29T05:41:58.160Z,83
2022-07-29T05:42:30.618Z,83
2022-07-29T05:43:02.150Z,83
2022-07-29T05:43:34.579Z,83
2022-07-29T05:44:06.122Z,83
2022-07-29T05:44:33.932Z,83
2022-07-29T05:44:54.150Z,83
2022-07-29T05:45:26.355Z,83
2022-07-29T05:45:58.763Z,83
2022-07-29T05:46:30.197Z,83
2022-07-29T05:47:02.645Z,82
2022-07-29T05:47:35.582Z,82
2022-07-29T05:48:06.634Z,82
2022-07-29T05:48:33.936Z,82
2022-07-29T05:48:54.176Z,82
2022-07-29T05:49:27.273Z,82
2022-07-29T05:49:58.118Z,82
2022-07-29T05:50:30.231Z,81
2022-07-29T05:51:02.155Z,81
2022-07-29T05:51:33.939Z,81
2022-07-29T05:52:06.119Z,81
2022-07-29T05:52:33.941Z,81
2022-07-29T05:52:55.088Z,82
2022-07-29T05:53:26.648Z,82
2022-07-29T05:53:58.108Z,82
2022-07-29T05:54:30.738Z,81
2022-07-29T05:55:02.234Z,81
2022-07-29T05:55:35.745Z,81
2022-07-29T05:56:06.113Z,82
2022-07-29T05:56:34.841Z,81
2022-07-29T05:56:54.107Z,81
2022-07-29T05:57:26.111Z,80
2022-07-29T05:57:58.641Z,80
2022-07-29T05:58:30.210Z,81
2022-07-29T05:59:03.102Z,80
2022-07-29T05:59:33.946Z,80
2022-07-29T06:00:07.690Z,79
2022-07-29T06:00:33.978Z,79
2022-07-29T06:00:54.342Z,79
2022-07-29T06:01:26.969Z,80
2022-07-29T06:01:58.681Z,79
2022-07-29T06:02:30.164Z,79
2022-07-29T06:03:02.133Z,79
2022-07-29T06:03:35.038Z,79
2022-07-29T06:04:06.163Z,79
2022-07-29T06:04:34.035Z,78
2022-07-29T06:04:54.188Z,78
2022-07-29T06:05:26.739Z,79
2022-07-29T06:05:58.409Z,79
2022-07-29T06:06:30.657Z,79
2022-07-29T06:07:02.101Z,79
2022-07-29T06:07:34.533Z,78
2022-07-29T06:08:06.106Z,80
2022-07-29T06:08:33.991Z,79
2022-07-29T06:08:54.100Z,79
2022-07-29T06:09:27.085Z,79
2022-07-29T06:09:58.688Z,78
2022-07-29T06:10:30.389Z,79
2022-07-29T06:11:02.731Z,77
2022-07-29T06:11:35.339Z,77
2022-07-29T06:12:07.948Z,78
2022-07-29T06:12:34.981Z,77
2022-07-29T06:12:54.125Z,77
2022-07-29T06:13:26.099Z,77
2022-07-29T06:13:58.250Z,77
2022-07-29T06:14:33.935Z,77
2022-07-29T06:15:02.366Z,76
2022-07-29T06:15:35.018Z,77
2022-07-29T06:16:06.241Z,76
2022-07-29T06:16:34.990Z,76
2022-07-29T06:16:54.150Z,75
2022-07-29T06:17:26.640Z,76
2022-07-29T06:18:00.686Z,76
2022-07-29T06:18:30.768Z,76
2022-07-29T06:19:02.125Z,76
2022-07-29T06:19:45.333Z,77
2022-07-29T06:20:07.532Z,77
2022-07-29T06:20:33.939Z,77
2022-07-29T06:20:54.817Z,77
2022-07-29T06:21:26.119Z,77
2022-07-29T06:21:59.140Z,76
2022-07-29T06:22:30.095Z,76
2022-07-29T06:23:02.592Z,76
2022-07-29T06:23:33.937Z,76
2022-07-29T06:24:06.587Z,76
2022-07-29T06:24:33.945Z,76
2022-07-29T06:24:54.159Z,76
2022-07-29T06:25:26.199Z,76
2022-07-29T06:25:58.888Z,76
2022-07-29T06:26:32.624Z,75
2022-07-29T06:27:02.922Z,74
2022-07-29T06:27:34.840Z,75
2022-07-29T06:28:06.103Z,74
2022-07-29T06:28:34.852Z,75
2022-07-29T06:28:54.884Z,75
2022-07-29T06:29:26.586Z,76
2022-07-29T06:29:58.202Z,75
2022-07-29T06:30:31.088Z,74
2022-07-29T06:31:02.134Z,74
2022-07-29T06:31:35.340Z,73
2022-07-29T06:32:06.165Z,73
2022-07-29T06:32:33.935Z,73
2022-07-29T06:32:54.121Z,73
2022-07-29T06:33:26.147Z,74
2022-07-29T06:33:58.751Z,74
2022-07-29T06:34:30.163Z,74
2022-07-29T06:35:32.803Z,74
2022-07-29T06:35:53.380Z,74
2022-07-29T06:36:22.954Z,74
2022-07-29T06:36:39.601Z,74
2022-07-29T06:37:15.441Z,74
2022-07-29T06:37:33.943Z,74
2022-07-29T06:37:59.792Z,73
2022-07-29T06:38:34.333Z,73
2022-07-29T06:39:02.766Z,73
2022-07-29T06:39:33.941Z,74
2022-07-29T06:40:07.066Z,72
2022-07-29T06:40:34.041Z,73
2022-07-29T06:40:54.158Z,74
2022-07-29T06:41:26.636Z,74
2022-07-29T06:41:59.254Z,73
2022-07-29T06:42:30.641Z,74
2022-07-29T06:43:02.084Z,73
2022-07-29T06:43:34.603Z,73
2022-07-29T06:44:06.145Z,72
2022-07-29T06:44:35.362Z,72
2022-07-29T06:44:54.880Z,72
2022-07-29T06:45:26.365Z,73
2022-07-29T06:45:58.971Z,73
2022-07-29T06:46:30.242Z,73
2022-07-29T06:47:02.127Z,72
2022-07-29T06:47:34.665Z,73
2022-07-29T06:48:06.597Z,72
2022-07-29T06:48:33.934Z,73
2022-07-29T06:48:54.449Z,72
2022-07-29T06:49:26.150Z,72
2022-07-29T06:49:58.093Z,72
2022-07-29T06:50:30.225Z,73
2022-07-29T06:51:02.104Z,72
2022-07-29T06:51:35.227Z,72
2022-07-29T06:52:06.202Z,72
2022-07-29T06:52:33.976Z,72
2022-07-29T06:52:54.104Z,72
2022-07-29T06:53:26.594Z,72
2022-07-29T06:54:02.496Z,70
2022-07-29T06:54:30.633Z,70
2022-07-29T06:55:02.302Z,71
2022-07-29T06:55:35.762Z,70
2022-07-29T06:56:06.145Z,71
2022-07-29T06:56:38.953Z,71
2022-07-29T06:56:54.088Z,70
2022-07-29T06:57:26.089Z,71
2022-07-29T06:57:58.971Z,72
2022-07-29T06:58:30.166Z,72
2022-07-29T06:59:02.689Z,72
2022-07-29T06:59:36.205Z,71
2022-07-29T07:00:06.942Z,71
2022-07-29T07:00:33.933Z,70
2022-07-29T07:00:54.205Z,71
2022-07-29T07:01:26.145Z,71
2022-07-29T07:01:58.232Z,71
2022-07-29T07:02:30.166Z,71
2022-07-29T07:03:02.049Z,71
2022-07-29T07:03:33.935Z,71
2022-07-29T07:04:06.092Z,72
2022-07-29T07:04:36.073Z,71
2022-07-29T07:04:54.084Z,72
2022-07-29T07:05:30.488Z,71
2022-07-29T07:06:00.025Z,71
2022-07-29T07:06:31.457Z,70
2022-07-29T07:07:02.137Z,71
2022-07-29T07:07:35.426Z,71
2022-07-29T07:08:06.125Z,71
2022-07-29T07:08:34.006Z,71
2022-07-29T07:08:54.657Z,71
2022-07-29T07:09:26.056Z,71
2022-07-29T07:09:58.633Z,72
2022-07-29T07:10:30.162Z,72
2022-07-29T07:11:02.755Z,72
2022-07-29T07:11:34.524Z,71
2022-07-29T07:12:07.505Z,70
2022-07-29T07:12:34.804Z,71
2022-07-29T07:12:54.065Z,71
2022-07-29T07:13:26.076Z,71
2022-07-29T07:14:02.933Z,71
2022-07-29T07:14:30.080Z,71
2022-07-29T07:15:02.374Z,71
2022-07-29T07:15:39.281Z,72
2022-07-29T07:16:06.076Z,71
2022-07-29T07:16:36.052Z,70
2022-07-29T07:16:54.168Z,70
2022-07-29T07:17:26.541Z,71
2022-07-29T07:17:58.037Z,71
2022-07-29T07:18:32.310Z,71
2022-07-29T07:19:02.080Z,71
2022-07-29T07:19:35.423Z,71
2022-07-29T07:20:06.209Z,71
2022-07-29T07:20:34.044Z,70
2022-07-29T07:20:54.156Z,71
2022-07-29T07:21:26.102Z,72
2022-07-29T07:21:58.568Z,71
2022-07-29T07:22:30.085Z,71
2022-07-29T07:23:03.517Z,70
2022-07-29T07:23:33.991Z,71
2022-07-29T07:24:06.673Z,70
2022-07-29T07:24:35.426Z,70
2022-07-29T07:24:54.068Z,70
2022-07-29T07:25:27.240Z,70
2022-07-29T07:25:58.237Z,71
2022-07-29T07:26:30.054Z,70
2022-07-29T07:27:02.049Z,71
2022-07-29T07:27:33.941Z,70
2022-07-29T07:28:06.981Z,71
2022-07-29T07:28:33.967Z,70
2022-07-29T07:28:54.876Z,70
2022-07-29T07:29:26.611Z,70
2022-07-29T07:29:58.944Z,71
2022-07-29T07:30:30.960Z,70
2022-07-29T07:31:02.064Z,71
2022-07-29T07:31:34.610Z,69
2022-07-29T07:32:06.130Z,70
2022-07-29T07:32:34.031Z,70
2022-07-29T07:32:54.037Z,71
2022-07-29T07:33:26.176Z,70
2022-07-29T07:33:58.737Z,70
2022-07-29T07:34:30.061Z,68
2022-07-29T07:35:02.622Z,68
2022-07-29T07:35:33.937Z,69
2022-07-29T07:36:07.725Z,70
2022-07-29T07:36:33.927Z,70
2022-07-29T07:36:54.068Z,69
2022-07-29T07:37:27.059Z,70
2022-07-29T07:37:58.464Z,70
2022-07-29T07:38:30.066Z,70
2022-07-29T07:39:02.089Z,71
2022-07-29T07:39:33.963Z,71
2022-07-29T07:40:06.183Z,70
2022-07-29T07:40:33.970Z,71
2022-07-29T07:40:55.079Z,71
2022-07-29T07:41:27.155Z,71
2022-07-29T07:41:58.062Z,70
2022-07-29T07:42:30.610Z,69
2022-07-29T07:43:02.058Z,68
2022-07-29T07:43:34.846Z,68
2022-07-29T07:44:06.061Z,67
2022-07-29T07:44:46.260Z,68
2022-07-29T07:45:13.881Z,67
2022-07-29T07:45:34.924Z,67
2022-07-29T07:45:59.484Z,67
2022-07-29T07:46:30.063Z,68
2022-07-29T07:47:03.897Z,67
2022-07-29T07:47:34.968Z,67
2022-07-29T07:48:06.653Z,67
2022-07-29T07:48:33.929Z,67
2022-07-29T07:48:54.325Z,68
2022-07-29T07:49:26.076Z,68
2022-07-29T07:49:58.022Z,68
2022-07-29T07:50:30.421Z,68
2022-07-29T07:51:02.058Z,69
2022-07-29T07:51:35.167Z,67
2022-07-29T07:52:06.025Z,68
2022-07-29T07:52:34.551Z,68
2022-07-29T07:52:54.068Z,68
2022-07-29T07:53:26.064Z,67
2022-07-29T07:53:58.062Z,68
2022-07-29T07:54:30.067Z,68
2022-07-29T07:55:02.218Z,68
2022-07-29T07:55:53.414Z,68
2022-07-29T07:56:22.149Z,68
2022-07-29T07:56:39.325Z,67
2022-07-29T07:57:10.131Z,68
2022-07-29T07:57:33.962Z,68
2022-07-29T07:57:58.649Z,68
2022-07-29T07:58:30.103Z,68
2022-07-29T07:59:03.457Z,68
2022-07-29T07:59:33.962Z,68
2022-07-29T08:00:07.021Z,68
2022-07-29T08:00:34.814Z,67
2022-07-29T08:00:54.202Z,67
2022-07-29T08:01:27.116Z,67
2022-07-29T08:01:58.200Z,68
2022-07-29T08:02:30.136Z,68
2022-07-29T08:03:02.148Z,68
2022-07-29T08:03:33.959Z,67
2022-07-29T08:04:06.062Z,67
2022-07-29T08:04:34.027Z,66
2022-07-29T08:04:54.083Z,65
2022-07-29T08:05:26.802Z,66
2022-07-29T08:05:59.078Z,66
2022-07-29T08:06:31.646Z,66
2022-07-29T08:07:03.252Z,67
2022-07-29T08:07:35.575Z,66
2022-07-29T08:08:06.079Z,67
2022-07-29T08:08:33.999Z,67
2022-07-29T08:08:56.457Z,67
2022-07-29T08:09:29.830Z,66
2022-07-29T08:09:58.972Z,66
2022-07-29T08:10:30.129Z,67
2022-07-29T08:11:08.598Z,65
2022-07-29T08:11:34.009Z,66
2022-07-29T08:12:06.872Z,65
2022-07-29T08:12:33.961Z,65
2022-07-29T08:12:54.064Z,64
2022-07-29T08:13:26.036Z,64
2022-07-29T08:13:58.346Z,64
2022-07-29T08:14:30.083Z,65
2022-07-29T08:15:02.323Z,66
2022-07-29T08:15:34.016Z,65
2022-07-29T08:16:06.102Z,65
2022-07-29T08:16:33.989Z,65
2022-07-29T08:16:56.398Z,65
2022-07-29T08:17:26.610Z,66
2022-07-29T08:17:58.065Z,65
2022-07-29T08:18:30.630Z,66
2022-07-29T08:19:02.032Z,66
2022-07-29T08:19:35.865Z,66
2022-07-29T08:20:06.344Z,66
2022-07-29T08:20:33.962Z,66
2022-07-29T08:20:54.191Z,66
2022-07-29T08:21:26.083Z,67
2022-07-29T08:21:59.029Z,67
2022-07-29T08:22:30.048Z,67
2022-07-29T08:23:03.617Z,67
2022-07-29T08:23:47.480Z,67
2022-07-29T08:24:07.287Z,67
2022-07-29T08:24:34.501Z,67
2022-07-29T08:24:55.720Z,67
2022-07-29T08:25:26.253Z,67
2022-07-29T08:25:58.056Z,67
2022-07-29T08:26:30.130Z,67
2022-07-29T08:27:02.876Z,67
2022-07-29T08:27:43.496Z,67
2022-07-29T08:28:06.077Z,67
2022-07-29T08:28:34.018Z,66
2022-07-29T08:28:54.030Z,67
2022-07-29T08:29:26.652Z,66
2022-07-29T08:29:58.018Z,65
2022-07-29T08:30:31.803Z,65
2022-07-29T08:31:02.045Z,65
2022-07-29T08:31:34.715Z,64
2022-07-29T08:32:06.251Z,64
2022-07-29T08:32:52.741Z,64
2022-07-29T08:33:10.027Z,64
2022-07-29T08:33:33.955Z,64
2022-07-29T08:33:59.231Z,63
2022-07-29T08:34:30.070Z,63
2022-07-29T08:35:02.817Z,63
2022-07-29T08:35:35.727Z,62
2022-07-29T08:36:06.565Z,62
2022-07-29T08:36:33.959Z,63
2022-07-29T08:36:54.021Z,62
2022-07-29T08:37:26.079Z,62
2022-07-29T08:37:58.052Z,63
2022-07-29T08:38:30.086Z,63
2022-07-29T08:39:02.061Z,64
2022-07-29T08:39:34.557Z,64
2022-07-29T08:40:06.154Z,63
2022-07-29T08:40:36.269Z,63
2022-07-29T08:40:54.160Z,62
2022-07-29T08:41:26.591Z,62
2022-07-29T08:41:58.166Z,61
2022-07-29T08:42:30.533Z,61
2022-07-29T08:43:02.985Z,61
2022-07-29T08:43:34.960Z,61
2022-07-29T08:44:06.047Z,60
2022-07-29T08:44:34.058Z,60
2022-07-29T08:44:54.209Z,60
2022-07-29T08:45:26.322Z,61
2022-07-29T08:45:58.672Z,62
2022-07-29T08:46:30.153Z,61
2022-07-29T08:47:02.632Z,61
2022-07-29T08:47:33.954Z,60